createdAt,value
2023-06-29T00:01:55.514Z,8.40
2023-06-29T00:04:37.634Z,7.97
2023-06-29T00:07:20.195Z,7.90
2023-06-29T00:09:54.252Z,9.15
2023-06-29T00:12:26.807Z,7.78
2023-06-29T00:15:10.882Z,8.18
2023-06-29T00:17:56.452Z,8.55
2023-06-29T00:20:29.870Z,9.03
2023-06-29T00:23:02.405Z,9.55
2023-06-29T00:25:48.434Z,9.18
2023-06-29T00:28:32.869Z,9.35
2023-06-29T00:31:05.993Z,8.50
2023-06-29T00:33:49.758Z,7.95
2023-06-29T00:36:22.470Z,7.75
2023-06-29T00:39:06.765Z,9.80
2023-06-29T00:41:39.378Z,8.55
2023-06-29T00:44:26.363Z,7.78
2023-06-29T00:46:59.176Z,8.03
2023-06-29T00:49:41.942Z,6.75
2023-06-29T00:52:14.572Z,6.80
2023-06-29T00:54:59.845Z,6.97
2023-06-29T00:57:33.844Z,6.87
2023-06-29T01:00:16.771Z,7.25
2023-06-29T01:02:50.259Z,7.12
2023-06-29T01:05:35.187Z,6.95
2023-06-29T01:08:16.606Z,6.20
2023-06-29T01:11:00.695Z,6.60
2023-06-29T01:13:34.802Z,7.20
2023-06-29T01:16:38.463Z,7.53
2023-06-29T01:19:14.032Z,6.83
2023-06-29T01:22:11.457Z,9.98
2023-06-29T01:24:44.127Z,8.80
2023-06-29T01:27:28.504Z,7.67
2023-06-29T01:30:14.749Z,8.90
2023-06-29T01:32:47.208Z,7.67
2023-06-29T01:35:32.443Z,7.28
2023-06-29T01:38:08.699Z,6.83
2023-06-29T01:40:55.974Z,7.08
2023-06-29T01:43:30.969Z,8.08
2023-06-29T01:46:04.134Z,7.33
2023-06-29T01:48:48.663Z,5.92
2023-06-29T01:51:21.807Z,5.92
2023-06-29T01:54:05.795Z,6.58
2023-06-29T01:56:38.314Z,6.67
2023-06-29T01:59:20.520Z,6.35
2023-06-29T02:02:06.262Z,6.22
2023-06-29T02:04:48.823Z,6.92
2023-06-29T02:07:21.293Z,7.30
2023-06-29T02:10:04.460Z,6.97
2023-06-29T02:12:37.195Z,6.47
2023-06-29T02:15:20.065Z,6.12
2023-06-29T02:17:52.808Z,6.25
2023-06-29T02:20:36.556Z,6.62
2023-06-29T02:23:09.438Z,7.00
2023-06-29T02:25:51.976Z,7.92
2023-06-29T02:28:24.555Z,6.90
2023-06-29T02:31:09.819Z,9.78
2023-06-29T02:33:43.431Z,9.78
2023-06-29T02:36:16.726Z,10.10
2023-06-29T02:39:00.990Z,10.78
2023-06-29T02:41:33.686Z,10.82
2023-06-29T02:44:16.328Z,12.25
2023-06-29T02:47:00.693Z,9.60
2023-06-29T02:49:34.841Z,11.88
2023-06-29T02:52:17.817Z,12.05
2023-06-29T02:55:01.048Z,12.33
2023-06-29T02:57:35.013Z,12.33
2023-06-29T03:00:18.433Z,11.05
2023-06-29T03:02:51.675Z,10.80
2023-06-29T03:05:36.064Z,10.58
2023-06-29T03:08:20.261Z,10.40
2023-06-29T03:10:53.263Z,7.78
2023-06-29T03:13:37.533Z,8.88
2023-06-29T03:16:19.970Z,5.95
2023-06-29T03:18:52.512Z,6.45
2023-06-29T03:21:35.485Z,5.97
2023-06-29T03:24:17.673Z,5.50
2023-06-29T03:26:53.664Z,5.40
2023-06-29T03:29:37.309Z,6.70
2023-06-29T03:32:11.084Z,5.50
2023-06-29T03:34:53.469Z,4.92
2023-06-29T03:37:39.237Z,5.25
2023-06-29T03:40:21.744Z,5.50
2023-06-29T03:42:54.547Z,4.90
2023-06-29T03:45:28.031Z,5.03
2023-06-29T03:48:02.701Z,4.58
2023-06-29T03:50:36.482Z,4.03
2023-06-29T03:53:19.239Z,3.47
2023-06-29T03:55:52.254Z,3.08
2023-06-29T03:58:37.021Z,3.25
2023-06-29T04:01:10.414Z,3.58
2023-06-29T04:03:56.289Z,4.37
2023-06-29T04:06:28.813Z,4.28
2023-06-29T04:09:13.422Z,4.00
2023-06-29T04:11:47.728Z,3.77
2023-06-29T04:14:31.589Z,3.80
2023-06-29T04:17:04.632Z,3.75
2023-06-29T04:19:47.237Z,4.72
2023-06-29T04:22:30.355Z,3.50
2023-06-29T04:25:02.857Z,3.00
2023-06-29T04:27:45.731Z,2.90
2023-06-29T04:30:19.499Z,2.62
2023-06-29T04:33:04.609Z,2.90
2023-06-29T04:35:48.158Z,3.10
2023-06-29T04:38:22.780Z,3.05
2023-06-29T04:41:05.974Z,2.80
2023-06-29T04:43:52.072Z,3.50
2023-06-29T04:46:41.122Z,3.10
2023-06-29T04:49:27.320Z,3.92
2023-06-29T04:52:13.732Z,4.00
2023-06-29T04:54:46.766Z,3.80
2023-06-29T04:57:32.698Z,4.40
2023-06-29T05:02:54.234Z,4.20
2023-06-29T05:05:27.072Z,4.40
2023-06-29T05:08:09.844Z,4.05
2023-06-29T05:10:54.183Z,4.55
2023-06-29T05:13:37.619Z,3.58
2023-06-29T05:16:10.676Z,3.80
2023-06-29T05:18:55.361Z,3.80
2023-06-29T05:21:38.867Z,3.92
2023-06-29T05:24:12.466Z,3.37
2023-06-29T05:26:56.472Z,3.40
2023-06-29T05:29:30.666Z,4.17
2023-06-29T05:32:14.605Z,4.12
2023-06-29T05:34:47.438Z,3.20
2023-06-29T05:37:31.147Z,3.05
2023-06-29T05:40:14.569Z,3.75
2023-06-29T05:42:47.176Z,4.15
2023-06-29T05:45:31.980Z,3.10
2023-06-29T05:48:05.016Z,3.25
2023-06-29T05:50:39.087Z,3.90
2023-06-29T05:53:13.398Z,2.72
2023-06-29T05:55:56.577Z,3.85
2023-06-29T05:58:30.640Z,3.10
2023-06-29T06:01:15.207Z,3.00
2023-06-29T06:04:00.842Z,2.90
2023-06-29T06:06:43.682Z,4.25
2023-06-29T06:09:16.775Z,2.90
2023-06-29T06:11:59.602Z,3.10
2023-06-29T06:14:32.810Z,2.80
2023-06-29T06:17:16.989Z,2.50
2023-06-29T06:19:49.855Z,2.70
2023-06-29T06:22:33.766Z,2.52
2023-06-29T06:25:06.820Z,2.90
2023-06-29T06:27:51.888Z,2.50
2023-06-29T06:30:41.036Z,2.30
2023-06-29T06:33:15.586Z,2.42
2023-06-29T06:35:58.657Z,2.33
2023-06-29T06:38:50.245Z,2.67
2023-06-29T06:41:18.097Z,3.17
2023-06-29T06:44:03.565Z,3.37
2023-06-29T06:46:47.988Z,2.15
2023-06-29T06:49:22.051Z,2.93
2023-06-29T06:51:55.238Z,2.35
2023-06-29T06:54:39.674Z,2.10
2023-06-29T06:57:23.219Z,2.47
2023-06-29T06:59:56.768Z,2.45
2023-06-29T07:02:41.414Z,2.77
2023-06-29T07:05:14.736Z,3.12
2023-06-29T07:07:57.666Z,2.67
2023-06-29T07:10:31.727Z,3.33
2023-06-29T07:13:05.389Z,3.25
2023-06-29T07:15:50.369Z,2.87
2023-06-29T07:18:40.549Z,3.52
2023-06-29T07:26:31.514Z,2.87
2023-06-29T07:29:06.058Z,2.55
2023-06-29T07:31:49.227Z,2.27
2023-06-29T07:34:24.313Z,2.50
2023-06-29T07:37:10.147Z,2.30
2023-06-29T07:39:54.903Z,3.27
2023-06-29T07:42:41.224Z,2.98
2023-06-29T07:47:47.416Z,3.10
2023-06-29T07:50:51.105Z,2.90
2023-06-29T07:53:24.150Z,3.30
2023-06-29T07:56:06.742Z,3.37
2023-06-29T07:58:53.461Z,2.90
2023-06-29T08:01:42.574Z,2.90
2023-06-29T08:07:02.585Z,3.20
2023-06-29T08:09:48.439Z,2.65
2023-06-29T08:12:32.384Z,2.95
2023-06-29T08:15:05.541Z,2.80
2023-06-29T08:17:49.748Z,3.25
2023-06-29T08:20:24.149Z,4.15
2023-06-29T08:23:08.647Z,3.55
2023-06-29T08:25:41.145Z,3.45
2023-06-29T08:28:25.214Z,3.72
2023-06-29T08:30:57.996Z,2.40
2023-06-29T08:33:42.748Z,2.65
2023-06-29T08:36:15.522Z,2.52
2023-06-29T08:38:57.935Z,3.27
2023-06-29T08:41:42.852Z,2.90
2023-06-29T08:44:16.517Z,2.42
2023-06-29T08:47:03.485Z,2.70
2023-06-29T08:49:50.006Z,3.40
2023-06-29T08:52:35.094Z,4.30
2023-06-29T08:55:08.832Z,2.98
2023-06-29T08:57:56.131Z,3.87
2023-06-29T09:00:42.297Z,3.40
2023-06-29T09:03:15.568Z,3.13
2023-06-29T09:05:49.167Z,2.95
2023-06-29T09:08:35.458Z,2.77
2023-06-29T09:11:08.186Z,3.75
2023-06-29T09:13:52.138Z,3.77
2023-06-29T09:16:29.414Z,3.30
2023-06-29T09:19:16.025Z,3.50
2023-06-29T09:21:50.461Z,5.08
2023-06-29T09:24:43.714Z,2.75
2023-06-29T09:27:23.879Z,2.90
2023-06-29T09:29:58.110Z,3.10
2023-06-29T09:32:42.909Z,2.47
2023-06-29T09:35:27.541Z,2.65
2023-06-29T09:38:04.615Z,2.70
2023-06-29T09:40:51.107Z,3.20
2023-06-29T09:43:29.392Z,2.25
2023-06-29T09:46:14.415Z,2.47
2023-06-29T09:51:36.062Z,6.50
2023-06-29T09:54:15.798Z,2.77
2023-06-29T09:57:00.024Z,2.55
2023-06-29T09:59:46.861Z,3.10
2023-06-29T10:02:31.586Z,4.33
2023-06-29T10:05:16.293Z,3.17
2023-06-29T10:07:49.671Z,3.40
2023-06-29T10:10:37.054Z,2.60
2023-06-29T10:13:28.247Z,2.65
2023-06-29T10:16:03.991Z,2.12
2023-06-29T10:18:49.458Z,2.60
2023-06-29T10:21:36.002Z,2.72
2023-06-29T10:24:09.782Z,2.60
2023-06-29T10:27:12.187Z,2.00
2023-06-29T10:29:47.284Z,2.20
2023-06-29T10:32:34.626Z,2.50
2023-06-29T10:35:13.202Z,2.40
2023-06-29T10:37:59.275Z,2.42
2023-06-29T10:40:32.883Z,3.08
2023-06-29T10:43:19.215Z,2.50
2023-06-29T10:45:51.792Z,3.17
2023-06-29T10:48:47.067Z,2.70
2023-06-29T10:51:16.125Z,2.83
2023-06-29T10:53:52.425Z,3.50
2023-06-29T10:56:39.449Z,3.20
2023-06-29T10:59:13.279Z,2.65
2023-06-29T11:02:02.224Z,3.17
2023-06-29T11:04:35.946Z,3.70
2023-06-29T11:07:21.491Z,3.08
2023-06-29T11:10:07.923Z,3.93
2023-06-29T11:12:42.318Z,4.00
2023-06-29T11:15:29.485Z,3.62
2023-06-29T11:18:06.690Z,4.67
2023-06-29T11:20:49.992Z,4.97
2023-06-29T11:23:24.391Z,3.62
2023-06-29T11:26:09.007Z,3.35
2023-06-29T11:28:56.770Z,3.10
2023-06-29T11:31:41.458Z,2.98
2023-06-29T11:34:18.582Z,2.73
2023-06-29T11:39:38.096Z,2.80
2023-06-29T11:42:11.698Z,2.37
2023-06-29T11:45:09.577Z,2.15
2023-06-29T11:47:57.668Z,2.12
2023-06-29T11:50:43.036Z,2.15
2023-06-29T11:53:18.645Z,2.87
2023-06-29T11:56:03.634Z,2.47
2023-06-29T11:58:37.350Z,2.87
2023-06-29T12:01:22.832Z,2.85
2023-06-29T12:03:56.664Z,3.00
2023-06-29T12:06:29.251Z,2.90
2023-06-29T12:09:14.674Z,2.60
2023-06-29T12:11:49.302Z,2.60
2023-06-29T12:14:35.980Z,2.75
2023-06-29T12:20:10.525Z,3.25
2023-06-29T12:22:37.107Z,4.42
2023-06-29T12:25:16.032Z,3.20
2023-06-29T12:28:05.287Z,3.25
2023-06-29T12:30:38.631Z,3.75
2023-06-29T12:33:13.766Z,4.00
2023-06-29T12:35:59.235Z,3.37
2023-06-29T12:38:32.261Z,3.90
2023-06-29T12:41:16.017Z,4.85
2023-06-29T12:43:50.774Z,3.00
2023-06-29T12:46:34.791Z,3.72
2023-06-29T12:49:08.955Z,3.12
2023-06-29T12:51:52.839Z,3.87
2023-06-29T12:54:36.823Z,4.00
2023-06-29T12:57:10.348Z,3.80
2023-06-29T12:59:57.236Z,6.30
2023-06-29T13:02:42.727Z,5.80
2023-06-29T13:05:17.741Z,5.08
2023-06-29T13:08:00.316Z,5.05
2023-06-29T13:10:34.693Z,5.22
2023-06-29T13:13:17.924Z,5.45
2023-06-29T13:16:01.418Z,5.55
2023-06-29T13:18:46.181Z,5.05
2023-06-29T13:21:19.081Z,5.08
2023-06-29T13:24:08.712Z,4.70
2023-06-29T13:26:42.135Z,3.70
2023-06-29T13:29:26.108Z,4.33
2023-06-29T13:31:59.502Z,4.70
2023-06-29T13:34:43.558Z,3.90
2023-06-29T13:37:17.332Z,3.70
2023-06-29T13:40:00.085Z,4.00
2023-06-29T13:42:43.465Z,4.03
2023-06-29T13:45:15.998Z,3.35
2023-06-29T13:48:01.546Z,2.80
2023-06-29T13:50:46.263Z,3.27
2023-06-29T13:53:18.983Z,3.50
2023-06-29T13:56:01.318Z,2.67
2023-06-29T13:58:45.231Z,2.92
2023-06-29T14:01:18.392Z,3.75
2023-06-29T14:04:02.516Z,3.30
2023-06-29T14:06:38.002Z,3.52
2023-06-29T14:09:20.879Z,2.30
2023-06-29T14:11:53.788Z,2.30
2023-06-29T14:14:37.233Z,2.22
2023-06-29T14:17:22.252Z,3.10
2023-06-29T14:20:05.725Z,2.35
2023-06-29T14:22:50.389Z,3.42
2023-06-29T14:25:24.524Z,4.30
2023-06-29T14:28:08.497Z,4.10
2023-06-29T14:30:51.114Z,9.13
2023-06-29T14:33:28.819Z,4.65
2023-06-29T14:36:10.107Z,6.67
2023-06-29T14:38:43.067Z,6.10
2023-06-29T14:41:27.190Z,6.40
2023-06-29T14:44:00.042Z,5.90
2023-06-29T14:46:32.492Z,6.05
2023-06-29T14:49:18.609Z,6.03
2023-06-29T14:51:51.417Z,5.37
2023-06-29T14:54:35.407Z,6.28
2023-06-29T14:57:08.146Z,6.60
2023-06-29T14:59:50.922Z,6.40
2023-06-29T15:02:33.711Z,6.08
2023-06-29T15:05:06.692Z,6.50
2023-06-29T15:07:49.238Z,6.85
2023-06-29T15:10:21.707Z,6.78
2023-06-29T15:12:54.513Z,6.85
2023-06-29T15:15:27.519Z,8.90
2023-06-29T15:18:09.721Z,7.72
2023-06-29T15:20:42.953Z,6.37
2023-06-29T15:23:28.273Z,6.53
2023-06-29T15:26:01.647Z,6.78
2023-06-29T15:28:45.123Z,6.78
2023-06-29T15:31:18.388Z,6.40
2023-06-29T15:34:02.734Z,7.45
2023-06-29T15:36:36.000Z,5.92
2023-06-29T15:39:19.043Z,6.22
2023-06-29T15:41:52.400Z,6.33
2023-06-29T15:44:37.308Z,6.50
2023-06-29T15:47:22.124Z,6.10
2023-06-29T15:49:55.610Z,7.30
2023-06-29T15:52:29.075Z,5.97
2023-06-29T15:55:14.115Z,6.45
2023-06-29T15:57:49.018Z,6.40
2023-06-29T16:00:32.863Z,7.60
2023-06-29T16:03:17.895Z,6.78
2023-06-29T16:06:02.256Z,6.30
2023-06-29T16:08:35.268Z,6.35
2023-06-29T16:11:19.937Z,6.53
2023-06-29T16:13:54.355Z,6.28
2023-06-29T16:16:39.803Z,6.08
2023-06-29T16:19:15.315Z,6.47
2023-06-29T16:22:01.449Z,5.67
2023-06-29T16:24:34.769Z,6.35
2023-06-29T16:27:18.966Z,6.72
2023-06-29T16:29:51.684Z,7.25
2023-06-29T16:32:25.484Z,6.20
2023-06-29T16:35:11.320Z,7.40
2023-06-29T16:37:45.728Z,7.08
2023-06-29T16:40:30.747Z,7.22
2023-06-29T16:43:03.765Z,6.55
2023-06-29T16:45:36.923Z,6.70
2023-06-29T16:48:22.606Z,6.67
2023-06-29T16:50:55.548Z,6.72
2023-06-29T16:53:29.098Z,6.30
2023-06-29T16:56:14.228Z,6.87
2023-06-29T16:58:47.587Z,6.37
2023-06-29T17:01:33.232Z,6.53
2023-06-29T17:04:06.290Z,7.20
2023-06-29T17:06:49.307Z,9.65
2023-06-29T17:09:21.987Z,8.13
2023-06-29T17:12:05.269Z,7.42
2023-06-29T17:14:39.326Z,7.22
2023-06-29T17:17:23.399Z,8.15
2023-06-29T17:20:08.917Z,7.95
2023-06-29T17:22:42.198Z,7.83
2023-06-29T17:25:26.609Z,8.33
2023-06-29T17:28:00.551Z,8.68
2023-06-29T17:34:24.585Z,9.15
2023-06-29T17:36:59.178Z,8.88
2023-06-29T17:39:43.216Z,8.08
2023-06-29T17:42:23.998Z,9.63
2023-06-29T17:45:10.090Z,8.50
2023-06-29T17:47:42.845Z,8.45
2023-06-29T17:50:28.235Z,8.75
2023-06-29T17:53:00.870Z,9.40
2023-06-29T17:55:33.253Z,9.58
2023-06-29T17:58:05.689Z,10.08
2023-06-29T18:00:48.033Z,11.40
2023-06-29T18:03:21.191Z,11.40
2023-06-29T18:05:55.690Z,12.03
2023-06-29T18:08:40.533Z,15.00
2023-06-29T18:11:22.812Z,13.03
2023-06-29T18:13:55.553Z,12.33
2023-06-29T18:16:40.459Z,10.68
2023-06-29T18:19:22.969Z,11.22
2023-06-29T18:21:55.747Z,10.28
2023-06-29T18:24:39.856Z,10.28
2023-06-29T18:27:12.444Z,9.43
2023-06-29T18:29:56.684Z,9.75
2023-06-29T18:32:29.626Z,9.50
2023-06-29T18:35:13.583Z,9.28
2023-06-29T18:37:56.040Z,8.80
2023-06-29T18:40:29.714Z,8.70
2023-06-29T18:43:15.100Z,8.85
2023-06-29T18:45:58.874Z,8.63
2023-06-29T18:48:41.344Z,9.10
2023-06-29T18:51:13.920Z,8.43
2023-06-29T18:53:57.890Z,8.60
2023-06-29T18:56:30.613Z,8.60
2023-06-29T18:59:15.811Z,8.40
2023-06-29T19:01:48.484Z,8.63
2023-06-29T19:04:33.748Z,8.58
2023-06-29T19:07:17.866Z,7.87
2023-06-29T19:10:02.358Z,8.00
2023-06-29T19:12:35.148Z,7.62
2023-06-29T19:15:20.743Z,7.75
2023-06-29T19:17:53.332Z,7.53
2023-06-29T19:20:37.394Z,7.47
2023-06-29T19:23:10.124Z,8.25
2023-06-29T19:25:43.136Z,7.35
2023-06-29T19:28:27.618Z,6.78
2023-06-29T19:31:00.452Z,6.90
2023-06-29T19:33:44.394Z,6.40
2023-06-29T19:36:17.181Z,6.30
2023-06-29T19:38:59.958Z,5.50
2023-06-29T19:41:33.005Z,6.37
2023-06-29T19:44:15.435Z,5.53
2023-06-29T19:47:00.242Z,5.37
2023-06-29T19:49:33.129Z,5.85
2023-06-29T19:52:17.596Z,6.28
2023-06-29T19:54:50.475Z,5.17
2023-06-29T19:57:35.062Z,5.58
2023-06-29T20:00:09.528Z,5.33
2023-06-29T20:03:05.854Z,5.83
2023-06-29T20:05:38.496Z,5.33
2023-06-29T20:08:22.734Z,5.30
2023-06-29T20:10:55.232Z,5.03
2023-06-29T20:13:39.165Z,5.40
2023-06-29T20:16:11.640Z,5.17
2023-06-29T20:18:55.880Z,5.70
2023-06-29T20:21:28.931Z,5.72
2023-06-29T20:24:14.728Z,5.80
2023-06-29T20:26:48.417Z,6.00
2023-06-29T20:29:32.590Z,6.35
2023-06-29T20:32:17.101Z,6.00
2023-06-29T20:34:49.931Z,6.87
2023-06-29T20:37:32.408Z,6.45
2023-06-29T20:40:16.569Z,6.67
2023-06-29T20:42:49.328Z,7.78
2023-06-29T20:45:31.456Z,5.92
2023-06-29T20:48:14.336Z,6.65
2023-06-29T20:50:46.739Z,6.70
2023-06-29T20:53:31.971Z,5.87
2023-06-29T20:56:04.950Z,5.20
2023-06-29T20:58:47.799Z,6.10
2023-06-29T21:01:20.754Z,6.20
2023-06-29T21:04:10.685Z,7.00
2023-06-29T21:06:53.051Z,5.05
2023-06-29T21:09:25.706Z,5.72
2023-06-29T21:12:10.870Z,5.55
2023-06-29T21:14:44.297Z,5.22
2023-06-29T21:17:26.803Z,5.78
2023-06-29T21:19:59.760Z,5.15
2023-06-29T21:22:45.591Z,5.75
2023-06-29T21:25:28.850Z,6.20
2023-06-29T21:28:01.642Z,6.47
2023-06-29T21:30:37.613Z,5.55
2023-06-29T21:33:23.306Z,6.28
2023-06-29T21:36:07.635Z,6.67
2023-06-29T21:38:51.305Z,6.05
2023-06-29T21:41:23.879Z,5.87
2023-06-29T21:44:06.289Z,6.25
2023-06-29T21:46:39.163Z,6.62
2023-06-29T21:49:23.843Z,7.05
2023-06-29T21:52:09.973Z,8.20
2023-06-29T21:54:43.026Z,7.43
2023-06-29T21:57:44.983Z,7.25
2023-06-29T22:00:18.277Z,8.18
2023-06-29T22:02:59.744Z,7.80
2023-06-29T22:05:44.526Z,8.05
2023-06-29T22:08:23.187Z,8.08
2023-06-29T22:11:06.369Z,7.33
2023-06-29T22:13:39.195Z,7.75
2023-06-29T22:16:21.852Z,8.33
2023-06-29T22:18:54.473Z,7.83
2023-06-29T22:21:37.410Z,8.78
2023-06-29T22:24:21.154Z,7.97
2023-06-29T22:26:53.570Z,7.55
2023-06-29T22:29:37.325Z,7.97
2023-06-29T22:32:19.748Z,8.10
2023-06-29T22:35:05.337Z,7.35
2023-06-29T22:37:37.825Z,8.03
2023-06-29T22:40:21.769Z,8.00
2023-06-29T22:42:54.556Z,7.33
2023-06-29T22:45:36.911Z,7.03
2023-06-29T22:48:09.841Z,7.37
2023-06-29T22:50:43.298Z,7.47
2023-06-29T22:53:26.634Z,7.33
2023-06-29T22:55:59.282Z,11.10
2023-06-29T22:58:43.794Z,7.95
2023-06-29T23:01:26.498Z,7.00
2023-06-29T23:03:59.092Z,7.58
2023-06-29T23:06:41.960Z,8.30
2023-06-29T23:09:14.626Z,7.45
2023-06-29T23:12:00.149Z,7.20
2023-06-29T23:14:44.273Z,6.87
2023-06-29T23:17:28.318Z,7.03
2023-06-29T23:20:14.465Z,7.87
2023-06-29T23:22:47.337Z,6.90
2023-06-29T23:25:33.185Z,6.08
2023-06-29T23:28:05.970Z,6.65
2023-06-29T23:30:48.730Z,6.60
2023-06-29T23:33:31.333Z,6.45
2023-06-29T23:36:04.387Z,6.60
2023-06-29T23:38:51.444Z,7.30
2023-06-29T23:44:06.634Z,6.85
2023-06-29T23:46:50.987Z,7.62
2023-06-29T23:49:38.571Z,7.95
2023-06-29T23:52:11.549Z,7.87
2023-06-29T23:54:56.366Z,7.10
2023-06-29T23:57:28.965Z,7.58
